createdAt,value
2017-05-19T00:01:35.308Z,93.40
2017-05-19T00:04:03.511Z,93.50
2017-05-19T00:06:31.726Z,93.40
2017-05-19T00:09:00.683Z,93.50
2017-05-19T00:11:28.916Z,93.60
2017-05-19T00:13:57.134Z,93.50
2017-05-19T00:16:25.340Z,93.50
2017-05-19T00:18:54.315Z,93.60
2017-05-19T00:21:23.292Z,93.70
2017-05-19T00:23:51.502Z,93.80
2017-05-19T00:26:20.464Z,94.00
2017-05-19T00:28:48.684Z,94.10
2017-05-19T00:31:16.892Z,94.30
2017-05-19T00:33:45.112Z,94.10
2017-05-19T00:36:14.070Z,94.20
2017-05-19T00:38:42.276Z,94.00
2017-05-19T00:41:11.237Z,93.60
2017-05-19T00:43:39.445Z,93.60
2017-05-19T00:46:08.396Z,93.60
2017-05-19T00:48:36.604Z,94.00
2017-05-19T00:51:06.304Z,94.10
2017-05-19T00:53:35.265Z,94.20
2017-05-19T00:56:03.480Z,94.20
2017-05-19T00:58:32.429Z,94.30
2017-05-19T01:01:00.647Z,94.30
2017-05-19T01:03:29.616Z,94.30
2017-05-19T01:05:57.819Z,94.50
2017-05-19T01:08:26.042Z,94.50
2017-05-19T01:10:55.097Z,94.80
2017-05-19T01:13:23.308Z,94.80
2017-05-19T01:15:52.134Z,94.80
2017-05-19T01:18:21.092Z,94.80
2017-05-19T01:20:49.304Z,94.90
2017-05-19T01:23:18.271Z,94.90
2017-05-19T01:25:46.480Z,95.10
2017-05-19T01:28:14.701Z,95.00
2017-05-19T01:30:43.691Z,94.80
2017-05-19T01:33:11.918Z,94.90
2017-05-19T01:35:40.139Z,95.00
2017-05-19T01:38:08.351Z,95.00
2017-05-19T01:40:37.311Z,94.90
2017-05-19T01:43:05.517Z,94.90
2017-05-19T01:45:34.472Z,95.00
2017-05-19T01:48:03.401Z,94.80
2017-05-19T01:50:32.356Z,95.20
2017-05-19T01:53:00.568Z,95.20
2017-05-19T01:55:29.532Z,95.10
2017-05-19T01:57:57.740Z,95.20
2017-05-19T02:00:26.711Z,95.20
2017-05-19T02:02:54.919Z,95.20
2017-05-19T02:05:23.132Z,95.10
2017-05-19T02:07:51.357Z,95.10
2017-05-19T02:10:20.312Z,95.10
2017-05-19T02:12:49.396Z,95.30
2017-05-19T02:15:17.605Z,95.50
2017-05-19T02:17:46.561Z,95.40
2017-05-19T02:20:14.764Z,95.20
2017-05-19T02:22:44.439Z,95.70
2017-05-19T02:25:12.647Z,95.20
2017-05-19T02:27:41.607Z,95.40
2017-05-19T02:30:09.815Z,95.20
2017-05-19T02:32:38.782Z,95.20
2017-05-19T02:35:06.991Z,94.90
2017-05-19T02:37:35.960Z,94.60
2017-05-19T02:40:04.168Z,94.90
2017-05-19T02:42:32.384Z,95.20
2017-05-19T02:45:00.595Z,95.20
2017-05-19T02:47:29.547Z,95.00
2017-05-19T02:49:57.761Z,95.00
2017-05-19T02:52:25.968Z,94.90
2017-05-19T02:54:54.192Z,95.10
2017-05-19T02:57:22.395Z,95.20
2017-05-19T02:59:51.360Z,94.80
2017-05-19T03:02:19.568Z,94.70
2017-05-19T03:04:47.787Z,94.90
2017-05-19T03:07:16.007Z,94.60
2017-05-19T03:09:44.968Z,94.20
2017-05-19T03:12:13.180Z,94.10
2017-05-19T03:14:41.405Z,94.10
2017-05-19T03:17:09.623Z,93.90
2017-05-19T03:19:38.576Z,94.20
2017-05-19T03:22:06.788Z,94.70
2017-05-19T03:24:35.740Z,93.60
2017-05-19T03:27:03.953Z,92.80
2017-05-19T03:29:32.896Z,92.50
2017-05-19T03:32:01.105Z,92.70
2017-05-19T03:34:30.057Z,92.80
2017-05-19T03:36:58.269Z,93.00
2017-05-19T03:39:27.229Z,93.00
2017-05-19T03:41:55.443Z,92.60
2017-05-19T03:44:24.396Z,93.50
2017-05-19T03:46:52.604Z,93.10
2017-05-19T03:49:21.561Z,92.50
2017-05-19T03:51:49.766Z,93.00
2017-05-19T03:54:18.722Z,92.90
2017-05-19T03:56:46.932Z,92.80
2017-05-19T03:59:15.898Z,92.30
2017-05-19T04:01:44.103Z,92.00
2017-05-19T04:04:13.189Z,92.20
2017-05-19T04:06:42.143Z,92.50
2017-05-19T04:09:10.363Z,92.00
2017-05-19T04:11:39.351Z,93.30
2017-05-19T04:14:08.316Z,93.50
2017-05-19T04:16:36.544Z,92.90
2017-05-19T04:19:04.776Z,92.50
2017-05-19T04:21:32.990Z,92.30
2017-05-19T04:24:01.203Z,92.50
2017-05-19T04:26:29.411Z,92.30
2017-05-19T04:28:58.364Z,92.40
2017-05-19T04:31:26.587Z,91.90
2017-05-19T04:33:55.532Z,91.70
2017-05-19T04:36:23.768Z,92.10
2017-05-19T04:38:51.980Z,91.60
2017-05-19T04:41:20.927Z,92.10
2017-05-19T04:43:49.143Z,92.40
2017-05-19T04:46:18.091Z,91.90
2017-05-19T04:48:46.512Z,91.80
2017-05-19T04:51:15.486Z,92.20
2017-05-19T04:53:43.698Z,91.90
2017-05-19T04:56:11.903Z,91.80
2017-05-19T04:58:40.116Z,91.50
2017-05-19T05:01:09.071Z,91.00
2017-05-19T05:03:37.291Z,91.00
2017-05-19T05:06:06.247Z,91.10
2017-05-19T05:08:34.463Z,90.60
2017-05-19T05:11:03.410Z,90.80
2017-05-19T05:13:31.638Z,90.60
2017-05-19T05:15:59.851Z,90.40
2017-05-19T05:18:28.055Z,89.90
2017-05-19T05:20:57.016Z,90.70
2017-05-19T05:23:25.223Z,86.30
2017-05-19T05:25:54.183Z,81.80
2017-05-19T05:28:22.399Z,77.10
2017-05-19T05:30:50.628Z,72.30
2017-05-19T05:33:18.843Z,68.00
2017-05-19T05:35:47.798Z,65.90
2017-05-19T05:38:16.008Z,64.60
2017-05-19T05:40:44.997Z,68.40
2017-05-19T05:43:13.952Z,70.90
2017-05-19T05:45:42.167Z,67.40
2017-05-19T05:48:11.131Z,69.50
2017-05-19T05:50:39.340Z,68.40
2017-05-19T05:53:08.303Z,70.70
2017-05-19T05:55:36.511Z,71.30
2017-05-19T05:58:04.731Z,71.60
2017-05-19T06:00:32.953Z,72.50
2017-05-19T06:03:01.200Z,72.60
2017-05-19T06:05:29.424Z,71.50
2017-05-19T06:07:57.652Z,71.20
2017-05-19T06:10:25.871Z,70.80
2017-05-19T06:12:54.083Z,71.30
2017-05-19T06:15:22.302Z,69.20
2017-05-19T06:17:51.288Z,74.50
2017-05-19T06:20:19.519Z,76.30
2017-05-19T06:22:47.740Z,81.30
2017-05-19T06:25:16.698Z,80.50
2017-05-19T06:27:44.899Z,76.00
2017-05-19T06:30:13.871Z,74.40
2017-05-19T06:32:42.093Z,76.60
2017-05-19T06:35:10.308Z,71.50
2017-05-19T06:37:38.568Z,68.30
2017-05-19T06:40:06.744Z,64.30
2017-05-19T06:42:34.984Z,60.00
2017-05-19T06:45:03.193Z,60.90
2017-05-19T06:47:31.416Z,59.80
2017-05-19T06:50:00.379Z,61.20
2017-05-19T06:52:28.588Z,65.90
2017-05-19T06:54:56.807Z,59.60
2017-05-19T06:57:25.027Z,60.40
2017-05-19T06:59:53.976Z,60.20
2017-05-19T07:02:22.245Z,62.40
2017-05-19T07:04:50.456Z,63.30
2017-05-19T07:07:18.699Z,61.30
2017-05-19T07:09:46.907Z,62.50
2017-05-19T07:12:15.119Z,62.80
2017-05-19T07:14:44.287Z,65.00
2017-05-19T07:17:12.506Z,66.40
2017-05-19T07:19:40.714Z,66.00
2017-05-19T07:22:08.935Z,67.60
2017-05-19T07:24:37.892Z,68.00
2017-05-19T07:27:06.107Z,65.50
2017-05-19T07:29:34.328Z,66.80
2017-05-19T07:32:02.539Z,70.00
2017-05-19T07:34:31.496Z,68.70
2017-05-19T07:36:59.720Z,68.00
2017-05-19T07:39:27.955Z,65.80
2017-05-19T07:41:56.161Z,74.10
2017-05-19T07:44:25.123Z,73.40
2017-05-19T07:46:54.207Z,72.00
2017-05-19T07:49:22.521Z,75.50
2017-05-19T07:51:51.474Z,71.10
2017-05-19T07:54:19.727Z,70.70
2017-05-19T07:56:47.931Z,72.30
2017-05-19T07:59:16.912Z,70.20
2017-05-19T08:01:45.900Z,72.50
2017-05-19T08:04:14.100Z,69.80
2017-05-19T08:06:42.341Z,69.20
2017-05-19T08:09:10.548Z,73.10
2017-05-19T08:11:38.765Z,71.80
2017-05-19T08:14:06.976Z,70.80
2017-05-19T08:16:35.319Z,72.30
2017-05-19T08:19:03.523Z,73.30
2017-05-19T08:21:32.478Z,74.00
2017-05-19T08:24:00.695Z,74.70
2017-05-19T08:26:29.648Z,74.50
2017-05-19T08:28:57.896Z,75.20
2017-05-19T08:31:26.122Z,76.00
2017-05-19T08:33:54.359Z,75.60
2017-05-19T08:36:22.592Z,75.50
2017-05-19T08:38:51.073Z,76.90
2017-05-19T08:41:19.310Z,77.90
2017-05-19T08:43:47.532Z,77.70
2017-05-19T08:46:15.735Z,77.90
2017-05-19T08:48:43.953Z,79.10
2017-05-19T08:51:12.900Z,79.80
2017-05-19T08:53:42.011Z,80.20
2017-05-19T08:56:10.999Z,79.00
2017-05-19T08:58:39.215Z,79.80
2017-05-19T09:01:08.583Z,79.50
2017-05-19T09:03:36.999Z,79.00
2017-05-19T09:06:05.216Z,78.90
2017-05-19T09:08:33.469Z,78.60
2017-05-19T09:11:01.763Z,78.80
2017-05-19T09:13:31.518Z,77.90
2017-05-19T09:15:59.767Z,78.30
2017-05-19T09:18:27.977Z,77.90
2017-05-19T09:20:56.195Z,76.40
2017-05-19T09:23:25.143Z,76.50
2017-05-19T09:25:53.351Z,74.60
2017-05-19T09:28:22.312Z,73.80
2017-05-19T09:30:50.519Z,73.30
2017-05-19T09:33:19.476Z,73.90
2017-05-19T09:35:47.686Z,73.60
2017-05-19T09:38:16.644Z,72.20
2017-05-19T09:40:44.856Z,71.70
2017-05-19T09:43:13.056Z,71.70
2017-05-19T09:45:41.295Z,74.00
2017-05-19T09:48:10.251Z,73.60
2017-05-19T09:50:38.464Z,73.50
2017-05-19T09:53:07.421Z,73.50
2017-05-19T09:55:35.640Z,74.50
2017-05-19T09:58:04.601Z,74.90
2017-05-19T10:00:32.807Z,75.20
2017-05-19T10:03:01.759Z,76.10
2017-05-19T10:05:29.959Z,75.00
2017-05-19T10:07:58.937Z,76.10
2017-05-19T10:10:27.150Z,76.70
2017-05-19T10:12:55.370Z,77.00
2017-05-19T10:15:23.595Z,78.30
2017-05-19T10:17:51.815Z,79.10
2017-05-19T10:20:20.022Z,81.40
2017-05-19T10:22:48.980Z,83.70
2017-05-19T10:25:17.196Z,85.30
2017-05-19T10:27:46.156Z,86.10
2017-05-19T10:30:14.360Z,86.60
2017-05-19T10:32:43.320Z,87.80
2017-05-19T10:35:11.527Z,88.30
2017-05-19T10:37:40.507Z,88.00
2017-05-19T10:40:09.465Z,88.80
2017-05-19T10:42:37.672Z,89.50
2017-05-19T10:45:05.914Z,89.60
2017-05-19T10:47:34.120Z,88.80
2017-05-19T10:50:03.077Z,89.50
2017-05-19T10:52:31.295Z,88.80
2017-05-19T10:55:00.246Z,88.90
2017-05-19T10:57:28.463Z,89.60
2017-05-19T10:59:56.679Z,90.00
2017-05-19T11:02:24.900Z,90.10
2017-05-19T11:04:53.132Z,90.10
2017-05-19T11:07:21.379Z,89.60
2017-05-19T11:09:49.600Z,89.00
2017-05-19T11:12:17.807Z,89.80
2017-05-19T11:14:46.052Z,89.00
2017-05-19T11:17:15.020Z,90.10
2017-05-19T11:19:43.244Z,87.30
2017-05-19T11:22:12.201Z,88.30
2017-05-19T11:24:40.423Z,87.60
2017-05-19T11:27:08.646Z,87.60
2017-05-19T11:29:36.868Z,87.50
2017-05-19T11:32:05.103Z,89.10
2017-05-19T11:34:33.335Z,89.30
2017-05-19T11:37:01.567Z,88.40
2017-05-19T11:39:30.550Z,88.60
2017-05-19T11:41:58.760Z,88.50
2017-05-19T11:44:26.971Z,88.40
2017-05-19T11:46:55.190Z,88.80
2017-05-19T11:49:24.148Z,89.30
2017-05-19T11:51:52.359Z,89.70
2017-05-19T11:54:21.328Z,88.80
2017-05-19T11:56:49.798Z,89.80
2017-05-19T11:59:18.017Z,90.00
2017-05-19T12:01:46.241Z,90.60
2017-05-19T12:04:14.461Z,91.00
2017-05-19T12:06:42.680Z,92.00
2017-05-19T12:09:10.916Z,92.00
2017-05-19T12:11:41.397Z,92.40
2017-05-19T12:14:09.607Z,92.50
2017-05-19T12:16:37.843Z,92.30
2017-05-19T12:19:42.803Z,92.20
2017-05-19T12:22:11.043Z,91.40
2017-05-19T12:24:39.260Z,91.40
2017-05-19T12:27:07.482Z,91.60
2017-05-19T12:29:35.709Z,91.70
2017-05-19T12:32:03.929Z,91.70
2017-05-19T12:34:32.146Z,91.80
2017-05-19T12:37:00.364Z,91.10
2017-05-19T12:39:28.603Z,91.30
2017-05-19T12:41:56.832Z,91.30
2017-05-19T12:44:25.061Z,91.40
2017-05-19T12:46:54.056Z,91.20
2017-05-19T12:49:22.288Z,91.10
2017-05-19T12:51:50.506Z,91.10
2017-05-19T12:54:18.743Z,91.20
2017-05-19T12:56:46.971Z,91.70
2017-05-19T12:59:15.192Z,91.90
2017-05-19T13:01:43.418Z,92.00
2017-05-19T13:04:11.639Z,91.30
2017-05-19T13:06:39.863Z,91.20
2017-05-19T13:09:08.079Z,91.30
2017-05-19T13:11:36.304Z,91.40
2017-05-19T13:14:04.519Z,90.80
2017-05-19T13:16:32.743Z,90.70
2017-05-19T13:19:00.964Z,91.00
2017-05-19T13:21:29.191Z,91.50
2017-05-19T13:23:57.427Z,91.30
2017-05-19T13:26:25.644Z,91.80
2017-05-19T13:28:53.868Z,91.40
2017-05-19T13:31:22.089Z,91.40
2017-05-19T13:33:50.306Z,91.00
2017-05-19T13:36:18.524Z,91.40
2017-05-19T13:38:46.785Z,91.40
2017-05-19T13:41:15.000Z,91.30
2017-05-19T13:43:43.228Z,92.00
2017-05-19T13:46:11.456Z,92.40
2017-05-19T13:48:39.667Z,91.60
2017-05-19T13:51:07.892Z,92.10
2017-05-19T13:53:36.205Z,91.80
2017-05-19T13:56:04.420Z,91.70
2017-05-19T13:58:32.652Z,91.70
2017-05-19T14:01:00.876Z,92.10
2017-05-19T14:03:29.104Z,91.70
2017-05-19T14:05:57.319Z,91.20
2017-05-19T14:08:25.548Z,91.90
2017-05-19T14:10:54.492Z,91.80
2017-05-19T14:13:22.816Z,91.50
2017-05-19T14:15:51.062Z,90.90
2017-05-19T14:18:20.107Z,90.90
2017-05-19T14:20:48.400Z,91.00
2017-05-19T14:23:16.676Z,91.00
2017-05-19T14:25:44.891Z,90.80
2017-05-19T14:28:13.108Z,91.20
2017-05-19T14:30:41.328Z,90.90
2017-05-19T14:33:09.547Z,90.80
2017-05-19T14:35:37.771Z,90.80
2017-05-19T14:38:05.983Z,91.00
2017-05-19T14:40:34.212Z,90.80
2017-05-19T14:43:02.431Z,91.30
2017-05-19T14:45:30.677Z,91.50
2017-05-19T14:47:58.904Z,91.40
2017-05-19T14:50:27.123Z,91.70
2017-05-19T14:52:55.349Z,92.00
2017-05-19T14:55:23.571Z,92.00
2017-05-19T14:57:51.786Z,91.90
2017-05-19T15:00:20.003Z,92.10
2017-05-19T15:02:47.460Z,92.10
2017-05-19T15:05:15.678Z,91.70
2017-05-19T15:07:43.968Z,92.10
2017-05-19T15:10:12.184Z,91.80
2017-05-19T15:12:40.403Z,92.20
2017-05-19T15:15:08.633Z,91.80
2017-05-19T15:17:36.873Z,91.90
2017-05-19T15:20:05.097Z,91.80
2017-05-19T15:22:33.322Z,91.50
2017-05-19T15:25:01.549Z,91.90
2017-05-19T15:27:29.772Z,91.50
2017-05-19T15:29:58.013Z,91.10
2017-05-19T15:32:26.233Z,91.30
2017-05-19T15:34:54.474Z,91.40
2017-05-19T15:37:22.696Z,90.70
2017-05-19T15:39:50.928Z,90.50
2017-05-19T15:42:19.165Z,90.80
2017-05-19T15:44:47.392Z,90.60
2017-05-19T15:47:15.619Z,90.40
2017-05-19T15:49:43.853Z,90.40
2017-05-19T15:52:12.100Z,90.20
2017-05-19T15:54:40.316Z,90.30
2017-05-19T15:57:08.545Z,91.10
2017-05-19T15:59:36.763Z,90.00
2017-05-19T16:02:04.992Z,90.10
2017-05-19T16:04:33.212Z,90.90
2017-05-19T16:07:01.436Z,90.40
2017-05-19T16:09:29.660Z,90.40
2017-05-19T16:11:57.889Z,90.60
2017-05-19T16:14:26.136Z,90.10
2017-05-19T16:16:54.352Z,89.60
2017-05-19T16:19:22.572Z,89.30
2017-05-19T16:21:50.796Z,89.00
2017-05-19T16:24:19.013Z,90.10
2017-05-19T16:26:47.235Z,90.20
2017-05-19T16:29:15.453Z,90.10
2017-05-19T16:31:43.734Z,90.10
2017-05-19T16:34:11.958Z,90.40
2017-05-19T16:36:40.208Z,90.50
2017-05-19T16:39:08.431Z,90.80
2017-05-19T16:41:36.644Z,91.00
2017-05-19T16:44:04.879Z,91.30
2017-05-19T16:46:33.099Z,91.30
2017-05-19T16:49:01.343Z,91.40
2017-05-19T16:51:29.561Z,91.50
2017-05-19T16:53:57.788Z,91.00
2017-05-19T16:56:26.027Z,91.10
2017-05-19T16:58:54.260Z,91.20
2017-05-19T17:01:22.476Z,91.40
2017-05-19T17:03:50.697Z,91.00
2017-05-19T17:06:18.153Z,91.00
2017-05-19T17:08:46.396Z,91.10
2017-05-19T17:11:14.612Z,90.70
2017-05-19T17:13:42.827Z,91.50
2017-05-19T17:16:11.064Z,91.60
2017-05-19T17:18:39.281Z,91.10
2017-05-19T17:21:07.495Z,91.20
2017-05-19T17:23:35.717Z,91.30
2017-05-19T17:26:03.935Z,90.80
2017-05-19T17:28:32.155Z,91.60
2017-05-19T17:31:00.383Z,91.30
2017-05-19T17:33:28.604Z,91.50
2017-05-19T17:35:56.823Z,91.40
2017-05-19T17:38:25.053Z,90.40
2017-05-19T17:40:53.275Z,90.30
2017-05-19T17:43:21.519Z,90.30
2017-05-19T17:45:49.739Z,90.60
2017-05-19T17:48:17.971Z,90.40
2017-05-19T17:50:46.195Z,90.20
2017-05-19T17:53:14.424Z,90.30
2017-05-19T17:55:42.635Z,90.40
2017-05-19T17:58:10.887Z,91.00
2017-05-19T18:00:39.849Z,90.70
2017-05-19T18:03:07.292Z,91.00
2017-05-19T18:05:34.739Z,90.30
2017-05-19T18:08:02.963Z,90.70
2017-05-19T18:10:30.460Z,90.70
2017-05-19T18:12:57.916Z,90.80
2017-05-19T18:15:25.365Z,89.70
2017-05-19T18:17:54.072Z,89.90
2017-05-19T19:30:26.534Z,87.40
2017-05-19T19:32:57.366Z,87.10
2017-05-19T19:35:26.421Z,87.70
2017-05-19T19:37:54.997Z,87.10
2017-05-19T19:40:23.668Z,86.90
2017-05-19T19:42:52.842Z,85.40
2017-05-19T19:45:21.796Z,88.10
2017-05-19T19:47:50.012Z,87.60
2017-05-19T19:50:18.239Z,87.90
2017-05-19T19:52:46.452Z,88.00
2017-05-19T19:55:14.695Z,86.70
2017-05-19T19:57:42.908Z,87.40
2017-05-19T20:00:10.380Z,87.40
2017-05-19T20:02:38.600Z,87.30
2017-05-19T20:05:06.812Z,88.50
2017-05-19T20:07:35.046Z,87.30
2017-05-19T20:10:03.255Z,88.70
2017-05-19T20:12:31.480Z,86.70
2017-05-19T20:14:58.927Z,86.60
2017-05-19T20:17:34.760Z,87.00
2017-05-19T20:20:03.038Z,87.40
2017-05-19T20:22:31.251Z,86.00
2017-05-19T20:24:59.476Z,88.30
2017-05-19T20:27:27.697Z,87.30
2017-05-19T20:29:55.960Z,85.50
2017-05-19T20:32:24.200Z,85.50
2017-05-19T20:34:52.417Z,85.30
2017-05-19T20:37:20.649Z,85.60
2017-05-19T20:39:48.866Z,85.70
2017-05-19T20:42:17.100Z,86.60
2017-05-19T20:44:45.315Z,84.50
2017-05-19T20:47:13.535Z,83.90
2017-05-19T20:49:41.756Z,86.60
2017-05-19T20:52:09.980Z,87.50
2017-05-19T20:54:38.245Z,87.00
2017-05-19T20:57:06.461Z,87.30
2017-05-19T20:59:33.927Z,87.30
2017-05-19T21:02:02.151Z,87.30
2017-05-19T21:04:30.398Z,89.30
2017-05-19T21:06:58.618Z,87.10
2017-05-19T21:09:26.848Z,88.00
2017-05-19T21:11:55.073Z,85.80
2017-05-19T21:14:23.302Z,86.10
2017-05-19T21:16:51.535Z,88.40
2017-05-19T21:19:19.748Z,89.60
2017-05-19T21:21:47.984Z,88.80
2017-05-19T21:24:16.196Z,86.30
2017-05-19T21:26:44.440Z,87.40
2017-05-19T21:29:12.660Z,87.00
2017-05-19T21:31:40.880Z,86.50
2017-05-19T21:34:09.103Z,88.00
2017-05-19T21:36:37.323Z,87.70
2017-05-19T21:39:05.553Z,87.60
2017-05-19T21:41:33.777Z,84.90
2017-05-19T21:44:01.999Z,86.30
2017-05-19T21:46:30.220Z,86.70
2017-05-19T21:48:58.448Z,87.50
2017-05-19T21:51:27.025Z,87.20
2017-05-19T21:53:55.248Z,87.60
2017-05-19T21:56:23.498Z,88.90
2017-05-19T21:58:51.716Z,88.40
2017-05-19T22:01:19.956Z,88.80
2017-05-19T22:03:48.179Z,90.20
2017-05-19T22:06:16.400Z,91.30
2017-05-19T22:08:44.627Z,91.00
2017-05-19T22:11:12.883Z,90.70
2017-05-19T22:13:41.100Z,90.70
2017-05-19T22:16:09.323Z,90.70
2017-05-19T22:18:37.543Z,90.60
2017-05-19T22:21:05.760Z,90.70
2017-05-19T22:23:33.215Z,90.70
2017-05-19T22:26:01.428Z,90.60
2017-05-19T22:28:29.648Z,90.60
2017-05-19T22:30:57.873Z,90.90
2017-05-19T22:33:26.085Z,91.10
2017-05-19T22:35:54.299Z,91.70
2017-05-19T22:38:22.525Z,91.20
2017-05-19T22:40:50.746Z,91.10
2017-05-19T22:43:18.967Z,91.50
2017-05-19T22:45:47.183Z,91.50
2017-05-19T22:48:15.443Z,91.60
2017-05-19T22:50:43.652Z,91.50
2017-05-19T22:53:11.881Z,91.30
2017-05-19T22:55:40.100Z,91.30
2017-05-19T22:58:08.343Z,91.20
2017-05-19T23:00:36.556Z,91.20
2017-05-19T23:03:04.785Z,91.40
2017-05-19T23:05:32.999Z,91.00
2017-05-19T23:08:01.212Z,90.80
2017-05-19T23:10:29.438Z,91.10
2017-05-19T23:12:57.655Z,91.20
2017-05-19T23:15:25.875Z,91.10
2017-05-19T23:17:54.089Z,91.30
2017-05-19T23:20:22.323Z,91.60
2017-05-19T23:22:50.536Z,91.60
2017-05-19T23:25:18.772Z,91.30
2017-05-19T23:27:46.980Z,91.30
2017-05-19T23:30:15.204Z,91.30
2017-05-19T23:32:43.425Z,91.10
2017-05-19T23:35:11.650Z,91.00
2017-05-19T23:37:39.866Z,91.30
2017-05-19T23:40:08.091Z,91.20
2017-05-19T23:42:36.311Z,92.10
2017-05-19T23:45:04.523Z,92.30
2017-05-19T23:47:32.745Z,91.90
2017-05-19T23:50:00.971Z,92.10
2017-05-19T23:52:29.220Z,92.00
2017-05-19T23:54:57.436Z,91.90
2017-05-19T23:57:25.647Z,92.30
2017-05-19T23:59:53.872Z,92.30
